createdAt,value
2019-02-21T00:00:23.489Z,5.00
2019-02-21T00:02:55.771Z,5.10
2019-02-21T00:05:24.207Z,5.00
2019-02-21T00:08:11.959Z,5.00
2019-02-21T00:10:53.271Z,5.00
2019-02-21T00:13:34.750Z,5.00
2019-02-21T00:16:15.030Z,5.00
2019-02-21T00:18:55.913Z,5.00
2019-02-21T00:21:36.761Z,5.10
2019-02-21T00:24:17.769Z,5.00
2019-02-21T00:26:58.658Z,5.00
2019-02-21T00:29:39.601Z,5.00
2019-02-21T00:35:05.026Z,5.00
2019-02-21T00:37:47.785Z,5.00
2019-02-21T00:40:28.293Z,4.90
2019-02-21T00:43:09.031Z,4.90
2019-02-21T00:45:49.631Z,4.90
2019-02-21T00:48:30.735Z,4.80
2019-02-21T00:51:12.225Z,4.90
2019-02-21T00:53:53.120Z,4.90
2019-02-21T00:56:33.998Z,4.90
2019-02-21T00:59:14.475Z,4.70
2019-02-21T01:01:55.345Z,4.70
2019-02-21T01:04:36.317Z,4.80
2019-02-21T01:07:17.521Z,4.70
2019-02-21T01:09:58.238Z,4.60
2019-02-21T01:12:39.115Z,4.70
2019-02-21T01:15:19.783Z,4.60
2019-02-21T01:18:00.148Z,4.70
2019-02-21T01:20:41.293Z,4.60
2019-02-21T01:23:21.634Z,4.60
2019-02-21T01:26:02.168Z,4.60
2019-02-21T01:28:42.756Z,4.60
2019-02-21T01:31:23.467Z,4.50
2019-02-21T01:34:04.422Z,4.50
2019-02-21T01:36:48.181Z,4.40
2019-02-21T01:39:29.255Z,4.40
2019-02-21T01:42:09.872Z,4.40
2019-02-21T01:44:51.243Z,4.20
2019-02-21T01:47:19.656Z,4.20
2019-02-21T01:50:08.262Z,4.20
2019-02-21T01:52:56.009Z,4.20
2019-02-21T01:55:44.065Z,4.20
2019-02-21T01:58:32.147Z,4.20
2019-02-21T02:01:20.654Z,4.20
2019-02-21T02:04:08.667Z,4.10
2019-02-21T02:06:56.469Z,4.10
2019-02-21T02:09:44.582Z,4.10
2019-02-21T02:12:25.699Z,4.10
2019-02-21T02:15:06.451Z,4.20
2019-02-21T02:17:47.874Z,4.20
2019-02-21T02:20:29.410Z,4.20
2019-02-21T02:23:09.952Z,4.20
2019-02-21T02:25:50.599Z,4.10
2019-02-21T02:28:30.833Z,4.10
2019-02-21T02:31:22.054Z,4.10
2019-02-21T02:33:54.235Z,4.10
2019-02-21T02:36:35.348Z,4.10
2019-02-21T02:39:16.206Z,4.00
2019-02-21T02:41:56.562Z,4.00
2019-02-21T02:44:37.392Z,3.90
2019-02-21T02:47:18.307Z,3.90
2019-02-21T02:49:58.770Z,3.80
2019-02-21T02:52:39.428Z,3.80
2019-02-21T02:55:20.090Z,3.80
2019-02-21T02:58:01.200Z,3.80
2019-02-21T03:00:42.014Z,3.70
2019-02-21T03:03:23.163Z,3.70
2019-02-21T03:06:03.765Z,3.80
2019-02-21T03:08:44.487Z,3.70
2019-02-21T03:11:25.153Z,3.70
2019-02-21T03:14:05.874Z,3.70
2019-02-21T03:16:46.686Z,3.60
2019-02-21T03:19:27.604Z,3.70
2019-02-21T03:22:09.481Z,3.70
2019-02-21T03:24:51.080Z,3.80
2019-02-21T03:27:31.498Z,3.80
2019-02-21T03:32:57.020Z,3.80
2019-02-21T03:35:37.279Z,3.70
2019-02-21T03:38:18.628Z,3.70
2019-02-21T03:40:59.143Z,3.60
2019-02-21T03:43:39.604Z,3.50
2019-02-21T03:46:20.624Z,3.50
2019-02-21T03:49:01.441Z,3.50
2019-02-21T03:51:42.013Z,3.60
2019-02-21T03:54:22.788Z,3.70
2019-02-21T03:57:03.151Z,3.60
2019-02-21T03:59:43.979Z,3.50
2019-02-21T04:02:25.000Z,3.50
2019-02-21T04:05:05.930Z,3.50
2019-02-21T04:07:46.582Z,3.60
2019-02-21T04:10:27.807Z,3.60
2019-02-21T04:13:08.532Z,3.80
2019-02-21T04:15:49.216Z,3.70
2019-02-21T04:18:30.570Z,3.70
2019-02-21T04:21:11.616Z,3.70
2019-02-21T04:23:52.670Z,3.60
2019-02-21T04:26:33.557Z,3.50
2019-02-21T04:29:14.493Z,3.50
2019-02-21T04:31:55.005Z,3.40
2019-02-21T04:34:35.802Z,3.30
2019-02-21T04:37:16.639Z,3.30
2019-02-21T04:39:57.297Z,3.30
2019-02-21T04:42:38.078Z,3.20
2019-02-21T04:45:18.713Z,3.20
2019-02-21T04:47:59.358Z,3.30
2019-02-21T04:50:40.277Z,3.20
2019-02-21T04:53:20.924Z,3.20
2019-02-21T04:56:01.444Z,3.20
2019-02-21T04:58:45.345Z,3.20
2019-02-21T05:01:26.503Z,3.20
2019-02-21T05:04:06.751Z,3.20
2019-02-21T05:06:47.750Z,3.20
2019-02-21T05:09:28.491Z,3.20
2019-02-21T05:12:09.378Z,3.20
2019-02-21T05:14:51.178Z,3.30
2019-02-21T05:17:32.080Z,3.30
2019-02-21T05:20:13.302Z,3.30
2019-02-21T05:22:53.659Z,3.20
2019-02-21T05:25:34.158Z,3.20
2019-02-21T05:31:21.093Z,3.10
2019-02-21T05:34:03.569Z,3.10
2019-02-21T05:45:46.719Z,3.20
2019-02-21T05:48:46.775Z,3.10
2019-02-21T05:51:29.184Z,3.10
2019-02-21T05:54:12.674Z,3.20
2019-02-21T05:56:58.093Z,3.10
2019-02-21T05:59:58.699Z,3.10
2019-02-21T06:05:34.462Z,3.00
2019-02-21T06:08:35.749Z,3.00
2019-02-21T06:11:18.377Z,3.00
2019-02-21T06:14:01.223Z,3.10
2019-02-21T06:16:46.809Z,3.10
2019-02-21T06:19:48.284Z,3.10
2019-02-21T06:22:30.647Z,3.00
2019-02-21T06:25:13.472Z,2.80
2019-02-21T06:27:58.948Z,2.70
2019-02-21T06:33:34.510Z,2.90
2019-02-21T06:36:15.160Z,2.90
2019-02-21T06:38:55.576Z,2.80
2019-02-21T06:41:36.396Z,2.60
2019-02-21T06:44:20.717Z,2.60
2019-02-21T06:47:02.012Z,2.70
2019-02-21T06:49:32.795Z,2.70
2019-02-21T06:54:51.134Z,2.80
2019-02-21T06:57:38.895Z,2.80
2019-02-21T07:00:26.750Z,2.80
2019-02-21T07:03:16.129Z,2.70
2019-02-21T07:06:04.335Z,2.80
2019-02-21T07:08:54.174Z,2.90
2019-02-21T07:11:35.128Z,2.90
2019-02-21T07:14:15.914Z,2.90
2019-02-21T07:16:56.708Z,2.90
2019-02-21T07:19:37.485Z,2.80
2019-02-21T07:22:22.212Z,2.90
2019-02-21T07:25:02.512Z,3.00
2019-02-21T07:27:43.782Z,3.00
2019-02-21T07:30:24.067Z,2.80
2019-02-21T07:33:05.135Z,2.80
2019-02-21T07:35:46.267Z,2.80
2019-02-21T07:38:27.246Z,2.90
2019-02-21T07:41:09.167Z,3.10
2019-02-21T07:43:50.282Z,3.20
2019-02-21T07:46:32.369Z,3.20
2019-02-21T07:49:12.976Z,3.30
2019-02-21T07:51:53.727Z,3.30
2019-02-21T07:54:34.540Z,3.30
2019-02-21T07:57:14.217Z,3.40
2019-02-21T07:59:54.890Z,3.40
2019-02-21T08:02:35.417Z,3.50
2019-02-21T08:05:19.090Z,3.50
2019-02-21T08:07:59.856Z,3.60
2019-02-21T08:10:40.617Z,3.70
2019-02-21T08:13:20.936Z,3.70
2019-02-21T08:16:02.659Z,3.80
2019-02-21T08:18:43.040Z,3.90
2019-02-21T08:21:24.037Z,3.90
2019-02-21T08:24:05.589Z,4.00
2019-02-21T08:26:47.722Z,4.10
2019-02-21T08:29:28.870Z,4.10
2019-02-21T08:32:10.939Z,4.20
2019-02-21T08:34:53.402Z,4.20
2019-02-21T08:37:36.082Z,4.30
2019-02-21T08:40:16.672Z,4.40
2019-02-21T08:42:57.360Z,4.50
2019-02-21T08:45:38.457Z,4.60
2019-02-21T08:48:19.096Z,4.60
2019-02-21T08:51:00.142Z,4.70
2019-02-21T08:53:40.630Z,4.80
2019-02-21T08:56:21.242Z,4.90
2019-02-21T08:59:01.746Z,5.00
2019-02-21T09:01:42.485Z,5.00
2019-02-21T09:04:27.513Z,5.10
2019-02-21T09:07:05.856Z,5.20
2019-02-21T09:09:46.380Z,5.30
2019-02-21T09:12:27.320Z,5.40
2019-02-21T09:15:08.338Z,5.50
2019-02-21T09:17:49.616Z,5.60
2019-02-21T09:20:30.372Z,5.70
2019-02-21T09:23:11.857Z,5.70
2019-02-21T09:25:52.511Z,5.80
2019-02-21T09:28:33.945Z,5.90
2019-02-21T09:31:14.221Z,6.00
2019-02-21T09:33:54.925Z,6.10
2019-02-21T09:36:36.098Z,6.20
2019-02-21T09:39:16.787Z,6.30
2019-02-21T09:41:58.071Z,6.40
2019-02-21T09:44:38.446Z,6.50
2019-02-21T09:47:19.767Z,6.60
2019-02-21T09:50:01.708Z,6.70
2019-02-21T09:52:43.223Z,6.80
2019-02-21T09:55:24.310Z,6.80
2019-02-21T09:58:05.023Z,6.90
2019-02-21T10:00:45.580Z,6.90
2019-02-21T10:03:27.392Z,7.00
2019-02-21T10:06:08.480Z,7.00
2019-02-21T10:08:50.274Z,7.10
2019-02-21T10:11:32.776Z,7.30
2019-02-21T10:14:01.220Z,7.50
2019-02-21T10:16:49.686Z,7.60
2019-02-21T10:19:38.483Z,7.80
2019-02-21T10:22:26.357Z,8.00
2019-02-21T10:25:35.203Z,8.10
2019-02-21T10:28:23.202Z,8.10
2019-02-21T10:34:21.691Z,8.30
2019-02-21T10:37:08.988Z,8.30
2019-02-21T10:42:52.001Z,8.50
2019-02-21T10:45:47.335Z,8.40
2019-02-21T10:48:29.288Z,8.50
2019-02-21T10:51:37.793Z,8.50
2019-02-21T10:54:25.550Z,8.80
2019-02-21T10:57:13.303Z,8.80
2019-02-21T11:00:01.089Z,8.90
2019-02-21T11:02:48.865Z,9.00
2019-02-21T11:05:55.976Z,9.10
2019-02-21T11:08:43.825Z,9.20
2019-02-21T11:14:09.029Z,9.40
2019-02-21T11:16:49.884Z,9.60
2019-02-21T11:19:30.881Z,9.70
2019-02-21T11:22:11.667Z,9.70
2019-02-21T11:24:52.667Z,9.70
2019-02-21T11:27:33.123Z,10.00
2019-02-21T11:30:14.061Z,10.10
2019-02-21T11:32:54.893Z,10.20
2019-02-21T11:35:37.310Z,10.10
2019-02-21T11:38:18.758Z,10.20
2019-02-21T11:41:00.198Z,10.40
2019-02-21T11:43:40.918Z,10.70
2019-02-21T11:46:21.547Z,10.80
2019-02-21T11:49:02.217Z,10.90
2019-02-21T11:51:44.315Z,10.80
2019-02-21T11:54:27.224Z,10.90
2019-02-21T11:57:07.910Z,10.90
2019-02-21T11:59:48.376Z,11.10
2019-02-21T12:02:38.678Z,11.50
2019-02-21T12:05:17.502Z,11.80
2019-02-21T12:07:54.370Z,12.00
2019-02-21T12:10:34.960Z,12.10
2019-02-21T12:13:15.510Z,12.00
2019-02-21T12:15:56.214Z,12.10
2019-02-21T12:18:37.198Z,12.10
2019-02-21T12:21:17.568Z,12.20
2019-02-21T12:23:59.851Z,12.30
2019-02-21T12:26:41.303Z,12.30
2019-02-21T12:29:22.543Z,12.40
2019-02-21T12:32:02.982Z,12.40
2019-02-21T12:34:44.159Z,12.30
2019-02-21T12:37:24.466Z,12.30
2019-02-21T12:40:05.460Z,12.20
2019-02-21T12:42:45.999Z,12.20
2019-02-21T12:45:30.033Z,12.20
2019-02-21T12:48:10.565Z,12.40
2019-02-21T12:50:51.538Z,12.40
2019-02-21T12:53:33.076Z,12.50
2019-02-21T12:56:14.018Z,12.60
2019-02-21T12:58:56.446Z,12.50
2019-02-21T13:01:37.713Z,12.50
2019-02-21T13:04:18.322Z,12.80
2019-02-21T13:07:00.238Z,13.00
2019-02-21T13:09:41.302Z,13.00
2019-02-21T13:12:22.055Z,13.00
2019-02-21T13:15:06.312Z,13.10
2019-02-21T13:17:46.594Z,13.10
2019-02-21T13:20:28.972Z,13.30
2019-02-21T13:23:09.221Z,13.50
2019-02-21T13:25:51.564Z,13.50
2019-02-21T13:28:32.591Z,13.50
2019-02-21T13:31:14.447Z,13.40
2019-02-21T13:33:56.974Z,13.70
2019-02-21T13:36:38.096Z,13.80
2019-02-21T13:39:18.574Z,13.80
2019-02-21T13:42:00.796Z,13.50
2019-02-21T13:44:40.978Z,13.50
2019-02-21T13:47:22.980Z,13.60
2019-02-21T13:50:03.657Z,13.80
2019-02-21T13:52:44.596Z,13.90
2019-02-21T13:55:25.139Z,13.80
2019-02-21T13:58:05.913Z,13.60
2019-02-21T14:00:46.846Z,13.60
2019-02-21T14:03:28.623Z,13.60
2019-02-21T14:06:10.029Z,13.30
2019-02-21T14:08:51.382Z,13.40
2019-02-21T14:11:32.470Z,13.50
2019-02-21T14:14:15.094Z,13.60
2019-02-21T14:16:56.868Z,13.60
2019-02-21T14:19:39.168Z,13.70
2019-02-21T14:22:21.737Z,13.90
2019-02-21T14:25:03.773Z,14.20
2019-02-21T14:27:45.889Z,14.20
2019-02-21T14:30:28.276Z,14.20
2019-02-21T14:33:09.662Z,14.10
2019-02-21T14:35:50.420Z,14.20
2019-02-21T14:38:32.221Z,14.20
2019-02-21T14:41:12.541Z,14.00
2019-02-21T14:43:53.599Z,14.00
2019-02-21T14:46:35.557Z,14.20
2019-02-21T14:49:17.785Z,14.40
2019-02-21T14:52:01.990Z,14.20
2019-02-21T14:54:43.256Z,14.20
2019-02-21T14:57:23.741Z,14.30
2019-02-21T15:00:04.722Z,14.40
2019-02-21T15:02:45.374Z,14.50
2019-02-21T15:05:27.601Z,14.50
2019-02-21T15:08:08.820Z,14.60
2019-02-21T15:10:52.650Z,14.50
2019-02-21T15:13:33.427Z,14.50
2019-02-21T15:16:14.726Z,14.60
2019-02-21T15:18:55.459Z,14.60
2019-02-21T15:21:35.702Z,14.70
2019-02-21T15:24:17.516Z,14.40
2019-02-21T15:27:08.179Z,14.40
2019-02-21T15:29:42.824Z,14.40
2019-02-21T15:32:23.517Z,14.40
2019-02-21T15:35:05.320Z,14.40
2019-02-21T15:37:46.118Z,14.30
2019-02-21T15:40:27.676Z,14.20
2019-02-21T15:43:08.434Z,14.20
2019-02-21T15:45:49.348Z,14.20
2019-02-21T15:48:30.041Z,14.10
2019-02-21T15:51:11.983Z,14.00
2019-02-21T15:53:53.639Z,14.00
2019-02-21T15:56:34.477Z,13.90
2019-02-21T15:59:16.499Z,13.90
2019-02-21T16:01:57.187Z,13.80
2019-02-21T16:04:39.017Z,13.70
2019-02-21T16:07:19.613Z,13.60
2019-02-21T16:10:01.819Z,13.60
2019-02-21T16:12:44.201Z,13.50
2019-02-21T16:15:25.556Z,13.60
2019-02-21T16:18:07.989Z,13.50
2019-02-21T16:20:49.078Z,13.40
2019-02-21T16:23:31.252Z,13.30
2019-02-21T16:26:12.040Z,13.30
2019-02-21T16:28:52.474Z,13.20
2019-02-21T16:31:33.581Z,13.20
2019-02-21T16:34:15.248Z,13.10
2019-02-21T16:37:02.485Z,12.90
2019-02-21T16:39:39.416Z,12.80
2019-02-21T16:42:20.090Z,12.80
2019-02-21T16:45:01.214Z,12.70
2019-02-21T16:47:42.225Z,12.60
2019-02-21T16:50:29.684Z,12.50
2019-02-21T16:53:08.284Z,12.40
2019-02-21T16:55:48.562Z,12.30
2019-02-21T16:58:31.389Z,12.20
2019-02-21T17:01:12.488Z,12.10
2019-02-21T17:03:54.274Z,12.10
2019-02-21T17:06:34.862Z,11.90
2019-02-21T17:09:15.781Z,11.80
2019-02-21T17:11:56.178Z,11.70
2019-02-21T17:14:37.171Z,11.40
2019-02-21T17:23:33.848Z,11.50
2019-02-21T17:26:14.787Z,11.20
2019-02-21T17:28:57.769Z,11.00
2019-02-21T17:31:39.641Z,11.00
2019-02-21T17:34:21.051Z,11.00
2019-02-21T17:37:01.843Z,10.80
2019-02-21T17:39:43.009Z,10.50
2019-02-21T17:42:23.872Z,10.50
2019-02-21T17:45:04.797Z,10.50
2019-02-21T17:47:45.830Z,10.40
2019-02-21T17:50:54.599Z,10.20
2019-02-21T17:54:03.361Z,10.40
2019-02-21T17:56:51.372Z,10.10
2019-02-21T17:59:58.611Z,10.10
2019-02-21T18:03:07.355Z,10.20
2019-02-21T18:05:56.100Z,10.00
2019-02-21T18:08:45.445Z,9.90
2019-02-21T18:11:26.423Z,9.90
2019-02-21T18:14:07.321Z,9.90
2019-02-21T18:16:47.987Z,9.70
2019-02-21T18:19:28.830Z,9.60
2019-02-21T18:22:09.198Z,9.60
2019-02-21T18:24:50.137Z,9.50
2019-02-21T18:27:31.255Z,9.50
2019-02-21T18:30:12.335Z,9.50
2019-02-21T18:32:54.452Z,9.40
2019-02-21T18:35:35.852Z,9.40
2019-02-21T18:44:34.503Z,9.50
2019-02-21T18:47:15.450Z,9.30
2019-02-21T18:49:56.452Z,9.10
2019-02-21T18:52:37.156Z,9.20
2019-02-21T18:55:18.392Z,9.20
2019-02-21T18:57:59.225Z,9.00
2019-02-21T19:00:40.224Z,9.10
2019-02-21T19:03:21.204Z,9.00
2019-02-21T19:06:01.934Z,9.20
2019-02-21T19:08:42.636Z,9.10
2019-02-21T19:11:23.626Z,9.00
2019-02-21T19:14:05.131Z,9.10
2019-02-21T19:16:46.839Z,9.20
2019-02-21T19:19:28.290Z,9.10
2019-02-21T19:22:10.247Z,9.20
2019-02-21T19:24:52.473Z,9.30
2019-02-21T19:27:37.066Z,9.30
2019-02-21T19:30:18.020Z,9.30
2019-02-21T19:32:59.864Z,9.30
2019-02-21T19:35:40.851Z,9.20
2019-02-21T19:38:22.599Z,9.20
2019-02-21T19:41:04.571Z,9.20
2019-02-21T19:43:47.134Z,9.30
2019-02-21T19:46:29.151Z,9.30
2019-02-21T19:49:10.231Z,9.30
2019-02-21T19:51:52.151Z,9.40
2019-02-21T19:57:21.088Z,9.30
2019-02-21T20:00:01.679Z,9.30
2019-02-21T20:02:42.418Z,9.30
2019-02-21T20:05:23.653Z,9.20
2019-02-21T20:08:08.642Z,9.10
2019-02-21T20:13:31.893Z,9.10
2019-02-21T20:16:13.861Z,9.10
2019-02-21T20:18:55.455Z,9.10
2019-02-21T20:21:38.188Z,9.20
2019-02-21T20:24:19.575Z,9.10
2019-02-21T20:27:00.813Z,9.10
2019-02-21T20:29:42.124Z,9.10
2019-02-21T20:32:23.697Z,9.10
2019-02-21T20:35:04.507Z,9.10
2019-02-21T20:37:45.605Z,9.00
2019-02-21T20:40:27.020Z,9.00
2019-02-21T20:43:08.901Z,8.90
2019-02-21T20:45:53.374Z,8.80
2019-02-21T20:48:34.125Z,8.80
2019-02-21T20:51:15.510Z,8.80
2019-02-21T20:53:56.263Z,8.80
2019-02-21T20:56:36.772Z,8.70
2019-02-21T20:59:17.909Z,8.50
2019-02-21T21:01:59.823Z,8.60
2019-02-21T21:04:40.658Z,8.70
2019-02-21T21:07:25.072Z,8.70
2019-02-21T21:10:05.936Z,8.80
2019-02-21T21:12:47.795Z,8.50
2019-02-21T21:15:28.383Z,8.30
2019-02-21T21:18:11.019Z,8.20
2019-02-21T21:20:52.370Z,8.20
2019-02-21T21:23:33.472Z,8.20
2019-02-21T21:26:13.898Z,8.30
2019-02-21T21:28:54.713Z,8.30
2019-02-21T21:31:36.235Z,8.40
2019-02-21T21:34:16.815Z,8.40
2019-02-21T21:36:58.040Z,8.40
2019-02-21T21:39:39.130Z,8.30
2019-02-21T21:42:20.242Z,8.10
2019-02-21T21:45:01.193Z,8.30
2019-02-21T21:47:41.804Z,8.30
2019-02-21T21:50:23.227Z,8.40
2019-02-21T21:53:04.548Z,8.40
2019-02-21T21:55:45.277Z,8.50
2019-02-21T21:58:26.336Z,8.40
2019-02-21T22:01:07.438Z,8.30
2019-02-21T22:03:48.234Z,8.10
2019-02-21T22:06:29.293Z,8.10
2019-02-21T22:09:11.010Z,8.10
2019-02-21T22:11:51.723Z,8.10
2019-02-21T22:14:33.007Z,8.20
2019-02-21T22:17:13.413Z,8.20
2019-02-21T22:19:55.242Z,8.10
2019-02-21T22:22:37.051Z,8.00
2019-02-21T22:25:18.554Z,8.00
2019-02-21T22:27:59.616Z,7.90
2019-02-21T22:30:40.039Z,8.00
2019-02-21T22:33:20.969Z,8.00
2019-02-21T22:36:02.154Z,8.00
2019-02-21T22:38:43.195Z,8.10
2019-02-21T22:41:24.001Z,8.10
2019-02-21T22:44:06.193Z,8.20
2019-02-21T22:46:48.224Z,8.30
2019-02-21T22:49:28.958Z,8.30
2019-02-21T22:52:09.500Z,8.30
2019-02-21T22:54:50.081Z,8.30
2019-02-21T22:57:30.642Z,8.30
2019-02-21T23:00:11.379Z,8.30
2019-02-21T23:02:52.543Z,8.30
2019-02-21T23:05:34.810Z,8.50
2019-02-21T23:08:15.759Z,8.50
2019-02-21T23:10:56.662Z,8.50
2019-02-21T23:13:38.601Z,8.50
2019-02-21T23:16:19.985Z,8.50
2019-02-21T23:19:02.938Z,8.60
2019-02-21T23:21:44.119Z,8.50
2019-02-21T23:24:26.389Z,8.40
2019-02-21T23:27:07.223Z,8.50
2019-02-21T23:29:48.312Z,8.40
2019-02-21T23:32:30.453Z,8.30
2019-02-21T23:35:13.280Z,8.40
2019-02-21T23:37:55.191Z,8.40
2019-02-21T23:40:37.147Z,8.30
2019-02-21T23:43:17.768Z,8.40
2019-02-21T23:45:58.729Z,8.50
2019-02-21T23:48:40.390Z,8.50
2019-02-21T23:51:21.725Z,8.40
2019-02-21T23:54:03.530Z,8.40
2019-02-21T23:56:45.214Z,8.30
2019-02-21T23:59:26.223Z,8.20
